KXBP Airport (Bridgeport Muni) Information

FAA: XBP - ICAO: KXBP

KXBP Airport Location

State Texas
County Wise
City Bridgeport
KXBP Airport is 4 miles southwest of Bridgeport, TX.
Latitude 33-10-26.2550N
Longitude 097-49-42.3377W
Elevation 863ft

KXBP Airport METARs

METAR KXBP 201835Z AUTO 21009KT 10SM CLR 33/20 A2978 RMK AO2 T03300195
Altimeter 29.78"
Temperature 33.0°C (91.4°F)
Wind 210° at 9KT
Clouds Skies are clear.
Visibility 10.0mi
Time observed: 2021-06-20T18:35:00Z

KXBP Airport Details

Status Operational
Activation January 1970
Ownership Public
Usage Public
Chart DALLAS-FT WORTH
ATC on-site No
Beacon schedule sunset-sunrise
Beacon color clear green

KXBP Airport Contacts

Owner CITY OF BRIDGEPORT
Owner address 900 THOMPSON STREET, BRIDGEPORT, TX 76426
Owner phone 940-683-3400
Manager DAVID BANTA
Manager address 7121 MIDCREST DR, DALLAS, TX 75254
Manager phone 972-726-7445

KXBP Airport (Bridgeport Muni) Radio Frequencies

KXBP (Airport) Radio Frequencies

UNICOM 123
Common traffic advisory frequency (CTAF) 123